createdAt,value
2023-05-12T00:02:10.979Z,101396.66
2023-05-12T00:04:40.259Z,101400.59
2023-05-12T00:07:08.811Z,101386.72
2023-05-12T00:09:36.403Z,101393.94
2023-05-12T00:12:04.358Z,101396.63
2023-05-12T00:14:31.893Z,101394.56
2023-05-12T00:16:59.426Z,101394.56
2023-05-12T00:19:28.266Z,101394.34
2023-05-12T00:21:55.839Z,101389.19
2023-05-12T00:24:23.356Z,101389.41
2023-05-12T00:26:50.862Z,101392.09
2023-05-12T00:29:18.918Z,101391.69
2023-05-12T00:31:46.596Z,101390.41
2023-05-12T00:34:14.264Z,101403.44
2023-05-12T00:36:43.224Z,101393.31
2023-05-12T00:39:10.816Z,101394.97
2023-05-12T00:41:38.398Z,101389.59
2023-05-12T00:44:06.487Z,101393.72
2023-05-12T00:46:34.346Z,101390.69
2023-05-12T00:49:02.352Z,101403.25
2023-05-12T00:51:30.003Z,101397.66
2023-05-12T00:53:59.905Z,101395.34
2023-05-12T00:56:27.790Z,101399.31
2023-05-12T00:58:55.924Z,101406.94
2023-05-12T01:01:23.875Z,101401.50
2023-05-12T01:03:54.575Z,101404.19
2023-05-12T01:06:28.769Z,101411.44
2023-05-12T01:08:56.968Z,101409.13
2023-05-12T01:11:26.162Z,101407.88
2023-05-12T01:13:53.717Z,101402.50
2023-05-12T01:16:24.908Z,101409.31
2023-05-12T01:18:56.948Z,101411.56
2023-05-12T01:21:24.870Z,101413.25
2023-05-12T01:23:59.339Z,101423.38
2023-05-12T01:26:32.303Z,101417.19
2023-05-12T01:29:02.302Z,101416.59
2023-05-12T01:31:30.048Z,101420.13
2023-05-12T01:33:58.268Z,101420.53
2023-05-12T01:36:26.056Z,101419.72
2023-05-12T01:38:53.642Z,101415.59
2023-05-12T01:41:21.236Z,101423.44
2023-05-12T01:43:50.250Z,101420.13
2023-05-12T01:46:18.493Z,101423.66
2023-05-12T01:48:46.413Z,101425.31
2023-05-12T01:51:14.424Z,101431.06
2023-05-12T01:53:42.250Z,101432.13
2023-05-12T01:56:10.505Z,101436.66
2023-05-12T01:58:38.189Z,101438.78
2023-05-12T02:01:07.346Z,101436.69
2023-05-12T02:03:35.032Z,101442.06
2023-05-12T02:06:02.686Z,101448.28
2023-05-12T02:08:30.772Z,101439.97
2023-05-12T02:11:06.044Z,101446.16
2023-05-12T02:13:34.042Z,101444.88
2023-05-12T02:16:02.055Z,101456.50
2023-05-12T02:18:31.691Z,101454.88
2023-05-12T02:20:59.314Z,101458.19
2023-05-12T02:23:26.872Z,101455.06
2023-05-12T02:25:54.659Z,101451.13
2023-05-12T02:28:22.220Z,101449.94
2023-05-12T02:30:52.855Z,101453.66
2023-05-12T02:33:22.013Z,101453.81
2023-05-12T02:35:51.107Z,101451.13
2023-05-12T02:38:18.719Z,101457.72
2023-05-12T02:40:47.233Z,101463.09
2023-05-12T02:43:16.009Z,101451.13
2023-05-12T02:45:44.007Z,101456.06
2023-05-12T02:48:11.907Z,101459.19
2023-05-12T02:50:39.449Z,101458.16
2023-05-12T02:53:08.332Z,101459.81
2023-05-12T02:55:35.857Z,101453.81
2023-05-12T02:58:03.456Z,101458.59
2023-05-12T03:00:31.294Z,101455.31
2023-05-12T03:02:58.932Z,101450.34
2023-05-12T03:05:26.742Z,101462.31
2023-05-12T03:07:54.811Z,101459.03
2023-05-12T03:10:23.759Z,101457.75
2023-05-12T03:12:51.361Z,101461.09
2023-05-12T03:15:18.961Z,101456.16
2023-05-12T03:17:46.586Z,101460.47
2023-05-12T03:20:14.179Z,101462.13
2023-05-12T03:22:42.152Z,101458.66
2023-05-12T03:25:11.202Z,101461.72
2023-05-12T03:27:40.047Z,101468.16
2023-05-12T03:30:09.478Z,101470.63
2023-05-12T03:32:39.213Z,101476.59
2023-05-12T03:35:09.413Z,101466.91
2023-05-12T03:37:37.392Z,101473.91
2023-05-12T03:40:06.956Z,101463.16
2023-05-12T03:42:34.522Z,101475.56
2023-05-12T03:45:03.399Z,101470.84
2023-05-12T03:47:31.149Z,101468.38
2023-05-12T03:49:59.084Z,101474.75
2023-05-12T03:52:26.886Z,101473.97
2023-05-12T03:54:54.688Z,101474.75
2023-05-12T03:57:22.286Z,101477.84
2023-05-12T03:59:49.899Z,101477.03
2023-05-12T04:02:18.881Z,101483.84
2023-05-12T04:04:46.654Z,101483.84
2023-05-12T04:07:15.691Z,101482.81
2023-05-12T04:09:43.951Z,101489.00
2023-05-12T04:12:11.848Z,101482.59
2023-05-12T04:14:43.103Z,101486.13
2023-05-12T04:17:11.071Z,101487.97
2023-05-12T04:19:39.955Z,101492.50
2023-05-12T04:22:07.524Z,101498.31
2023-05-12T04:24:35.090Z,101503.25
2023-05-12T04:27:02.665Z,101501.34
2023-05-12T04:29:30.238Z,101509.81
2023-05-12T04:31:57.846Z,101507.75
2023-05-12T04:34:25.781Z,101508.78
2023-05-12T04:36:55.363Z,101506.94
2023-05-12T04:39:23.111Z,101507.34
2023-05-12T04:41:50.724Z,101512.91
2023-05-12T04:44:19.475Z,101513.72
2023-05-12T04:46:47.002Z,101521.34
2023-05-12T04:49:14.593Z,101518.66
2023-05-12T04:51:44.358Z,101517.22
2023-05-12T04:54:13.227Z,101525.47
2023-05-12T04:56:41.252Z,101527.53
2023-05-12T04:59:08.947Z,101522.34
2023-05-12T05:01:36.696Z,101534.38
2023-05-12T05:04:04.664Z,101533.69
2023-05-12T05:06:32.333Z,101535.13
2023-05-12T05:09:01.089Z,101541.34
2023-05-12T05:11:30.736Z,101549.81
2023-05-12T05:13:58.308Z,101545.25
2023-05-12T05:16:26.263Z,101548.53
2023-05-12T05:18:53.913Z,101552.88
2023-05-12T05:21:21.462Z,101547.69
2023-05-12T05:23:49.125Z,101546.41
2023-05-12T05:26:17.155Z,101561.25
2023-05-12T05:28:46.154Z,101559.59
2023-05-12T05:31:17.000Z,101561.44
2023-05-12T05:33:45.023Z,101566.81
2023-05-12T05:36:13.536Z,101573.63
2023-05-12T05:38:41.065Z,101576.94
2023-05-12T05:41:09.769Z,101578.53
2023-05-12T05:43:37.648Z,101578.94
2023-05-12T05:46:06.751Z,101581.81
2023-05-12T05:48:36.268Z,101581.38
2023-05-12T05:51:04.943Z,101579.91
2023-05-12T05:53:33.266Z,101586.53
2023-05-12T05:56:01.342Z,101579.03
2023-05-12T05:58:29.016Z,101585.84
2023-05-12T06:00:56.873Z,101584.00
2023-05-12T06:03:25.883Z,101596.13
2023-05-12T06:05:53.785Z,101589.44
2023-05-12T06:08:22.140Z,101592.88
2023-05-12T06:10:49.703Z,101600.53
2023-05-12T06:13:19.064Z,101603.41
2023-05-12T06:15:46.695Z,101611.03
2023-05-12T06:18:14.271Z,101608.50
2023-05-12T06:20:43.216Z,101609.03
2023-05-12T06:23:10.793Z,101606.88
2023-05-12T06:25:39.082Z,101604.13
2023-05-12T06:28:06.962Z,101614.56
2023-05-12T06:30:35.546Z,101606.16
2023-05-12T06:33:03.293Z,101618.75
2023-05-12T06:35:30.926Z,101613.75
2023-05-12T06:37:59.845Z,101617.19
2023-05-12T06:40:27.460Z,101616.09
2023-05-12T06:42:55.021Z,101618.94
2023-05-12T06:45:23.367Z,101624.31
2023-05-12T06:47:51.123Z,101626.56
2023-05-12T06:50:19.443Z,101631.06
2023-05-12T06:52:52.158Z,101631.97
2023-05-12T06:55:22.527Z,101630.00
2023-05-12T06:57:51.495Z,101628.28
2023-05-12T07:00:19.674Z,101639.13
2023-05-12T07:02:47.252Z,101641.38
2023-05-12T07:05:14.855Z,101642.44
2023-05-12T07:07:42.464Z,101642.59
2023-05-12T07:10:10.381Z,101647.66
2023-05-12T07:12:39.384Z,101650.50
2023-05-12T07:15:08.404Z,101649.63
2023-05-12T07:17:36.157Z,101638.63
2023-05-12T07:20:04.853Z,101648.84
2023-05-12T07:22:33.225Z,101646.63
2023-05-12T07:25:01.019Z,101648.28
2023-05-12T07:27:28.568Z,101647.22
2023-05-12T07:29:57.413Z,101654.25
2023-05-12T07:32:26.995Z,101649.09
2023-05-12T07:34:54.606Z,101654.75
2023-05-12T07:37:22.136Z,101650.78
2023-05-12T07:39:49.741Z,101661.34
2023-05-12T07:42:17.289Z,101661.00
2023-05-12T07:44:44.897Z,101660.06
2023-05-12T07:47:13.880Z,101658.31
2023-05-12T07:49:41.443Z,101662.66
2023-05-12T07:52:08.933Z,101660.53
2023-05-12T07:54:36.446Z,101659.38
2023-05-12T07:57:04.144Z,101662.06
2023-05-12T07:59:31.891Z,101666.78
2023-05-12T08:01:59.545Z,101662.28
2023-05-12T08:04:28.686Z,101661.81
2023-05-12T08:06:56.336Z,101659.06
2023-05-12T08:09:23.814Z,101670.56
2023-05-12T08:11:51.850Z,101665.78
2023-05-12T08:14:19.471Z,101667.63
2023-05-12T08:16:47.194Z,101667.19
2023-05-12T08:19:14.896Z,101673.25
2023-05-12T08:21:43.781Z,101669.06
2023-05-12T08:24:11.334Z,101668.50
2023-05-12T08:26:38.850Z,101679.34
2023-05-12T08:29:08.526Z,101679.06
2023-05-12T08:31:37.559Z,101678.19
2023-05-12T08:34:10.476Z,101668.97
2023-05-12T08:36:39.072Z,101676.88
2023-05-12T08:39:08.853Z,101677.03
2023-05-12T08:41:44.354Z,101665.50
2023-05-12T08:44:12.480Z,101663.03
2023-05-12T08:46:40.644Z,101667.75
2023-05-12T08:49:15.571Z,101668.06
2023-05-12T08:51:49.942Z,101660.66
2023-05-12T08:54:28.388Z,101660.78
2023-05-12T08:59:26.999Z,101666.53
2023-05-12T09:01:56.257Z,101665.53
2023-05-12T09:04:24.029Z,101662.72
2023-05-12T09:06:54.355Z,101666.66
2023-05-12T09:09:26.247Z,101663.09
2023-05-12T09:11:57.841Z,101661.81
2023-05-12T09:14:26.770Z,101668.50
2023-05-12T09:16:59.568Z,101670.19
2023-05-12T09:19:27.152Z,101666.50
2023-05-12T09:21:55.234Z,101665.47
2023-05-12T09:24:36.370Z,101667.75
2023-05-12T09:27:04.798Z,101663.75
2023-05-12T09:29:37.470Z,101672.88
2023-05-12T09:32:09.943Z,101666.22
2023-05-12T09:34:40.740Z,101669.47
2023-05-12T09:37:09.003Z,101673.63
2023-05-12T09:39:38.141Z,101669.66
2023-05-12T09:42:12.607Z,101668.59
2023-05-12T09:44:40.570Z,101661.59
2023-05-12T09:47:10.110Z,101662.16
2023-05-12T09:49:38.136Z,101669.56
2023-05-12T09:52:06.269Z,101664.91
2023-05-12T09:54:34.693Z,101668.25
2023-05-12T09:57:05.830Z,101661.41
2023-05-12T09:59:36.043Z,101666.91
2023-05-12T10:02:06.957Z,101662.84
2023-05-12T10:04:41.545Z,101657.09
2023-05-12T10:07:11.420Z,101666.28
2023-05-12T10:09:42.090Z,101657.94
2023-05-12T10:12:11.371Z,101657.94
2023-05-12T10:14:39.658Z,101660.09
2023-05-12T10:17:07.823Z,101668.19
2023-05-12T10:19:36.679Z,101668.13
2023-05-12T10:22:06.604Z,101667.72
2023-05-12T10:24:36.547Z,101660.13
2023-05-12T10:27:06.273Z,101652.00
2023-05-12T10:29:36.616Z,101656.28
2023-05-12T10:32:04.352Z,101664.59
2023-05-12T10:34:34.684Z,101666.16
2023-05-12T10:37:08.074Z,101664.84
2023-05-12T10:39:35.757Z,101672.88
2023-05-12T10:42:07.011Z,101660.78
2023-05-12T10:44:36.278Z,101661.03
2023-05-12T10:47:14.338Z,101654.66
2023-05-12T10:49:42.194Z,101658.06
2023-05-12T10:52:12.126Z,101654.44
2023-05-12T10:54:44.085Z,101661.13
2023-05-12T10:57:18.298Z,101654.00
2023-05-12T10:59:53.015Z,101652.16
2023-05-12T11:02:27.532Z,101658.38
2023-05-12T11:04:58.018Z,101650.50
2023-05-12T11:07:27.866Z,101657.94
2023-05-12T11:09:59.089Z,101655.78
2023-05-12T11:12:32.147Z,101657.38
2023-05-12T11:15:02.636Z,101653.03
2023-05-12T11:17:30.569Z,101661.19
2023-05-12T11:19:58.501Z,101662.88
2023-05-12T11:22:26.613Z,101654.44
2023-05-12T11:24:54.251Z,101648.44
2023-05-12T11:27:23.809Z,101653.63
2023-05-12T11:29:58.832Z,101659.63
2023-05-12T11:32:28.248Z,101663.41
2023-05-12T11:34:55.898Z,101669.97
2023-05-12T11:37:23.621Z,101662.06
2023-05-12T11:39:52.853Z,101662.31
2023-05-12T11:42:22.303Z,101662.75
2023-05-12T11:44:51.863Z,101663.63
2023-05-12T11:47:20.806Z,101659.78
2023-05-12T11:49:51.633Z,101677.63
2023-05-12T11:52:20.902Z,101678.44
2023-05-12T11:54:49.655Z,101674.88
2023-05-12T11:57:26.883Z,101681.72
2023-05-12T11:59:58.894Z,101672.72
2023-05-12T12:02:27.304Z,101675.97
2023-05-12T12:04:56.464Z,101678.16
2023-05-12T12:07:31.125Z,101668.88
2023-05-12T12:09:59.118Z,101679.25
2023-05-12T12:12:26.653Z,101680.31
2023-05-12T12:14:56.567Z,101667.72
2023-05-12T12:17:30.468Z,101670.50
2023-05-12T12:19:59.391Z,101679.44
2023-05-12T12:22:27.037Z,101670.41
2023-05-12T12:24:54.621Z,101676.94
2023-05-12T12:27:22.226Z,101679.06
2023-05-12T12:29:50.161Z,101670.91
2023-05-12T12:32:17.690Z,101677.81
2023-05-12T12:34:46.267Z,101682.50
2023-05-12T12:37:16.068Z,101676.41
2023-05-12T12:39:43.659Z,101676.06
2023-05-12T12:42:11.223Z,101672.91
2023-05-12T12:44:39.311Z,101668.84
2023-05-12T12:47:07.677Z,101678.56
2023-05-12T12:49:35.440Z,101672.22
2023-05-12T12:52:03.080Z,101667.66
2023-05-12T12:54:31.973Z,101672.16
2023-05-12T12:56:59.543Z,101678.13
2023-05-12T12:59:27.752Z,101673.22
2023-05-12T13:01:55.353Z,101673.81
2023-05-12T13:04:23.282Z,101663.13
2023-05-12T13:06:50.868Z,101669.97
2023-05-12T13:09:19.896Z,101665.81
2023-05-12T13:11:50.128Z,101666.38
2023-05-12T13:14:17.694Z,101662.59
2023-05-12T13:16:46.061Z,101664.22
2023-05-12T13:19:13.681Z,101656.06
2023-05-12T13:21:41.822Z,101653.59
2023-05-12T13:24:09.571Z,101651.94
2023-05-12T13:26:37.094Z,101654.66
2023-05-12T13:29:05.998Z,101659.00
2023-05-12T13:31:33.876Z,101656.56
2023-05-12T13:34:01.704Z,101659.03
2023-05-12T13:36:29.982Z,101660.41
2023-05-12T13:38:57.607Z,101654.72
2023-05-12T13:41:25.257Z,101660.69
2023-05-12T13:43:52.948Z,101656.88
2023-05-12T13:46:22.716Z,101660.16
2023-05-12T13:48:52.220Z,101663.16
2023-05-12T13:51:23.185Z,101648.44
2023-05-12T13:53:50.744Z,101653.34
2023-05-12T13:56:18.586Z,101652.25
2023-05-12T13:58:46.305Z,101648.38
2023-05-12T14:01:14.081Z,101651.13
2023-05-12T14:03:43.502Z,101653.06
2023-05-12T14:06:12.393Z,101644.09
2023-05-12T14:08:39.989Z,101641.56
2023-05-12T14:11:07.761Z,101638.06
2023-05-12T14:13:35.685Z,101636.94
2023-05-12T14:16:03.547Z,101635.09
2023-05-12T14:18:31.273Z,101642.72
2023-05-12T14:21:00.453Z,101638.91
2023-05-12T14:23:28.235Z,101641.63
2023-05-12T14:25:56.384Z,101642.66
2023-05-12T14:28:24.092Z,101653.53
2023-05-12T14:30:56.144Z,101649.16
2023-05-12T14:33:23.679Z,101653.56
2023-05-12T14:36:03.113Z,101644.53
2023-05-12T14:38:35.923Z,101640.47
2023-05-12T14:41:03.875Z,101654.09
2023-05-12T14:43:31.793Z,101645.91
2023-05-12T14:45:59.428Z,101644.84
2023-05-12T14:48:27.142Z,101654.09
2023-05-12T14:50:55.253Z,101657.31
2023-05-12T14:53:23.602Z,101652.72
2023-05-12T14:55:53.047Z,101651.09
2023-05-12T14:58:21.827Z,101648.34
2023-05-12T15:00:51.669Z,101657.34
2023-05-12T15:03:20.598Z,101658.44
2023-05-12T15:06:04.730Z,101651.88
2023-05-12T15:08:33.729Z,101665.97
2023-05-12T15:11:02.699Z,101664.00
2023-05-12T15:13:30.516Z,101657.78
2023-05-12T15:15:58.030Z,101669.88
2023-05-12T15:18:25.785Z,101667.66
2023-05-12T15:20:53.480Z,101661.38
2023-05-12T15:23:21.320Z,101662.50
2023-05-12T15:25:48.967Z,101664.41
2023-05-12T15:28:18.169Z,101661.09
2023-05-12T15:30:45.876Z,101663.91
2023-05-12T15:33:13.487Z,101659.16
2023-05-12T15:35:41.587Z,101663.19
2023-05-12T15:38:09.269Z,101653.66
2023-05-12T15:40:37.113Z,101655.50
2023-05-12T15:43:04.972Z,101663.31
2023-05-12T15:45:37.121Z,101674.16
2023-05-12T15:50:33.510Z,101668.84
2023-05-12T15:53:01.998Z,101668.97
2023-05-12T15:55:29.962Z,101671.63
2023-05-12T15:57:58.191Z,101668.09
2023-05-12T16:00:25.901Z,101667.72
2023-05-12T16:02:55.047Z,101673.72
2023-05-12T16:05:24.038Z,101676.53
2023-05-12T16:07:54.514Z,101676.56
2023-05-12T16:10:22.696Z,101671.63
2023-05-12T16:12:50.331Z,101678.69
2023-05-12T16:15:18.162Z,101674.59
2023-05-12T16:17:46.215Z,101673.50
2023-05-12T16:20:15.389Z,101674.00
2023-05-12T16:22:42.913Z,101663.56
2023-05-12T16:25:11.187Z,101660.81
2023-05-12T16:27:38.831Z,101669.00
2023-05-12T16:30:07.702Z,101670.91
2023-05-12T16:32:35.304Z,101663.13
2023-05-12T16:35:03.036Z,101669.34
2023-05-12T16:37:32.150Z,101673.81
2023-05-12T16:39:59.853Z,101667.78
2023-05-12T16:42:27.474Z,101668.63
2023-05-12T16:44:55.529Z,101664.03
2023-05-12T16:47:23.132Z,101664.56
2023-05-12T16:49:53.193Z,101664.44
2023-05-12T16:52:20.776Z,101663.97
2023-05-12T16:54:49.647Z,101662.59
2023-05-12T16:57:18.144Z,101672.88
2023-05-12T16:59:45.812Z,101667.63
2023-05-12T17:02:13.473Z,101667.13
2023-05-12T17:04:41.457Z,101675.53
2023-05-12T17:07:09.285Z,101661.69
2023-05-12T17:09:36.884Z,101663.72
2023-05-12T17:12:06.736Z,101667.50
2023-05-12T17:14:35.537Z,101666.06
2023-05-12T17:17:03.344Z,101670.69
2023-05-12T17:19:30.912Z,101668.84
2023-05-12T17:21:58.553Z,101676.97
2023-05-12T17:24:26.710Z,101678.56
2023-05-12T17:26:54.804Z,101674.34
2023-05-12T17:29:23.667Z,101683.84
2023-05-12T17:31:51.299Z,101689.75
2023-05-12T17:34:18.883Z,101675.25
2023-05-12T17:36:46.457Z,101678.94
2023-05-12T17:39:15.879Z,101680.69
2023-05-12T17:41:43.845Z,101677.81
2023-05-12T17:44:11.396Z,101689.88
2023-05-12T17:46:40.404Z,101688.88
2023-05-12T17:49:08.077Z,101686.22
2023-05-12T17:51:36.259Z,101695.47
2023-05-12T17:54:04.150Z,101691.72
2023-05-12T17:56:31.676Z,101696.56
2023-05-12T17:58:59.219Z,101701.19
2023-05-12T18:01:26.866Z,101706.63
2023-05-12T18:03:55.773Z,101698.78
2023-05-12T18:06:24.235Z,101693.13
2023-05-12T18:08:52.186Z,101697.78
2023-05-12T18:11:19.784Z,101699.31
2023-05-12T18:16:27.584Z,101697.25
2023-05-12T18:18:58.445Z,101700.00
2023-05-12T18:21:26.218Z,101707.28
2023-05-12T18:23:53.756Z,101712.88
2023-05-12T18:26:21.373Z,101711.41
2023-05-12T18:28:48.971Z,101716.41
2023-05-12T18:31:19.229Z,101722.03
2023-05-12T18:33:47.534Z,101723.91
2023-05-12T18:36:16.627Z,101724.06
2023-05-12T18:38:44.473Z,101724.69
2023-05-12T18:41:12.806Z,101722.25
2023-05-12T18:43:40.433Z,101722.47
2023-05-12T18:46:07.968Z,101719.22
2023-05-12T18:48:35.513Z,101720.88
2023-05-12T18:51:03.057Z,101716.91
2023-05-12T18:53:31.894Z,101731.47
2023-05-12T18:55:59.432Z,101723.34
2023-05-12T18:58:26.996Z,101722.66
2023-05-12T19:00:54.583Z,101734.25
2023-05-12T19:03:22.240Z,101734.13
2023-05-12T19:05:49.840Z,101731.91
2023-05-12T19:08:18.996Z,101737.56
2023-05-12T19:10:48.514Z,101746.63
2023-05-12T19:13:16.064Z,101747.69
2023-05-12T19:15:43.607Z,101745.56
2023-05-12T19:18:11.353Z,101747.94
2023-05-12T19:20:39.033Z,101738.72
2023-05-12T19:23:07.014Z,101759.22
2023-05-12T19:25:35.288Z,101756.25
2023-05-12T19:28:04.559Z,101752.16
2023-05-12T19:30:32.229Z,101757.13
2023-05-12T19:32:59.805Z,101766.63
2023-05-12T19:35:27.387Z,101759.88
2023-05-12T19:37:54.969Z,101766.81
2023-05-12T19:40:22.468Z,101762.00
2023-05-12T19:42:50.303Z,101769.47
2023-05-12T19:45:19.545Z,101765.34
2023-05-12T19:47:47.323Z,101762.88
2023-05-12T19:50:14.943Z,101767.97
2023-05-12T19:52:42.511Z,101765.88
2023-05-12T19:55:10.307Z,101778.00
2023-05-12T19:57:38.142Z,101769.81
2023-05-12T20:00:07.026Z,101775.06
2023-05-12T20:02:41.557Z,101782.88
2023-05-12T20:05:10.050Z,101776.88
2023-05-12T20:07:37.566Z,101776.88
2023-05-12T20:10:05.649Z,101778.81
2023-05-12T20:12:33.166Z,101782.44
2023-05-12T20:15:00.799Z,101790.84
2023-05-12T20:17:28.437Z,101788.81
2023-05-12T20:19:57.357Z,101795.94
2023-05-12T20:22:24.962Z,101792.22
2023-05-12T20:24:52.467Z,101787.91
2023-05-12T20:27:19.984Z,101792.16
2023-05-12T20:29:47.586Z,101795.72
2023-05-12T20:32:15.063Z,101801.72
2023-05-12T20:34:42.713Z,101802.00
2023-05-12T20:37:11.603Z,101802.03
2023-05-12T20:39:39.142Z,101801.81
2023-05-12T20:42:09.906Z,101806.75
2023-05-12T20:44:37.682Z,101802.88
2023-05-12T20:47:05.583Z,101809.31
2023-05-12T20:49:33.182Z,101814.94
2023-05-12T20:52:00.783Z,101809.34
2023-05-12T20:54:29.626Z,101818.16
2023-05-12T20:56:57.179Z,101810.50
2023-05-12T20:59:25.358Z,101814.41
2023-05-12T21:01:52.906Z,101813.63
2023-05-12T21:04:20.542Z,101808.25
2023-05-12T21:06:48.050Z,101808.69
2023-05-12T21:09:15.595Z,101820.88
2023-05-12T21:11:44.467Z,101815.75
2023-05-12T21:14:12.036Z,101822.81
2023-05-12T21:16:39.669Z,101823.88
2023-05-12T21:19:07.443Z,101823.53
2023-05-12T21:21:35.295Z,101827.88
2023-05-12T21:24:02.871Z,101822.03
2023-05-12T21:26:30.670Z,101829.09
2023-05-12T21:29:02.673Z,101825.41
2023-05-12T21:31:30.258Z,101826.88
2023-05-12T21:33:57.862Z,101823.84
2023-05-12T21:36:25.534Z,101823.19
2023-05-12T21:38:53.071Z,101829.66
2023-05-12T21:41:21.349Z,101820.97
2023-05-12T21:43:48.907Z,101829.34
2023-05-12T21:46:17.894Z,101831.44
2023-05-12T21:48:45.530Z,101827.06
2023-05-12T21:51:13.151Z,101826.06
2023-05-12T21:53:40.710Z,101832.47
2023-05-12T21:56:08.537Z,101832.50
2023-05-12T21:58:36.886Z,101835.41
2023-05-12T22:01:04.494Z,101827.06
2023-05-12T22:03:33.442Z,101830.59
2023-05-12T22:06:00.971Z,101830.66
2023-05-12T22:08:28.540Z,101830.22
2023-05-12T22:10:57.294Z,101829.41
2023-05-12T22:13:24.842Z,101826.50
2023-05-12T22:15:53.357Z,101838.94
2023-05-12T22:18:21.116Z,101837.28
2023-05-12T22:20:50.043Z,101837.50
2023-05-12T22:23:17.728Z,101834.81
2023-05-12T22:25:45.242Z,101839.38
2023-05-12T22:28:12.850Z,101843.50
2023-05-12T22:30:41.674Z,101841.03
2023-05-12T22:33:09.401Z,101840.84
2023-05-12T22:35:36.967Z,101843.94
2023-05-12T22:38:05.857Z,101847.66
2023-05-12T22:40:33.663Z,101849.28
2023-05-12T22:43:01.200Z,101847.66
2023-05-12T22:45:29.173Z,101844.13
2023-05-12T22:47:56.686Z,101845.19
2023-05-12T22:50:24.620Z,101847.88
2023-05-12T22:52:56.934Z,101849.31
2023-05-12T22:55:28.144Z,101846.59
2023-05-12T22:57:55.717Z,101850.13
2023-05-12T23:00:23.428Z,101847.44
2023-05-12T23:02:51.198Z,101851.78
2023-05-12T23:05:18.857Z,101849.06
2023-05-12T23:07:46.396Z,101847.22
2023-05-12T23:10:13.980Z,101852.41
2023-05-12T23:12:42.890Z,101849.47
2023-05-12T23:15:11.134Z,101843.47
2023-05-12T23:17:38.689Z,101852.59
2023-05-12T23:20:07.795Z,101854.63
2023-05-12T23:22:35.390Z,101852.34
2023-05-12T23:25:02.929Z,101844.94
2023-05-12T23:27:30.509Z,101844.72
2023-05-12T23:30:00.488Z,101842.25
2023-05-12T23:32:28.276Z,101852.75
2023-05-12T23:34:56.325Z,101841.00
2023-05-12T23:37:24.456Z,101850.91
2023-05-12T23:39:52.021Z,101845.13
2023-05-12T23:42:19.570Z,101846.97
2023-05-12T23:44:47.062Z,101850.03
2023-05-12T23:47:15.987Z,101843.25
2023-05-12T23:49:43.539Z,101842.78
2023-05-12T23:52:11.142Z,101840.09
2023-05-12T23:54:38.698Z,101842.34
2023-05-12T23:57:06.492Z,101842.94
2023-05-12T23:59:34.084Z,101840.06
